KMTN

Martin State Airport

Baltimore, Maryland, USA
METAR KMTN 211945Z 29025G31KT 10SM SKC M05/M20 A3033
Observed Flight Rules
Jan-21 @ 19:45 UTC (36 minutes ago) Visual Flight Rules
Wind Visibility Clouds
290° at 25 knots
 Gusting to 31 knots
10 miles
  • Clear skies
Temperatures Readings
Current -5°C / 23°F
Dewpoint -20°C / -4°F
Humidity 30%
Altimeter 30.33" Hg
Pressure 1027.12 hPa
Elevation 7
METAR KMTN 211945Z 29025G31KT 10SM SKC M05/M20 A3033
Observed Flight Rules
Jan-21 @ 19:45 UTC
(36 minutes ago)
VFR
Wind Visibility
290° at 25 knots
 Gusting to 31 knots
10 miles
Clouds
  • Clear skies
Temperature Dewpoint
-5°C / 23°F -20°C / -4°F
Humidity Altimeter Pressure
30% 30.33" Hg 1027.12 hPa